Time;durP1;ratioP1;P1;durP2;ratioP2;P2;SDS_P1;SDS_P2;PMS_P1;PMS_P2;Temp;Humidity;BMP_temperature;BMP_pressure;BME280_temperature;BME280_humidity;BME280_pressure;Samples;Min_cycle;Max_cycle;Signal;HPM_P1;HPM_P2
2022/10/08 00:01:31;;;;;;;12.18;7.50;;;;;;;;;;5096634;28;20039;-69
2022/10/08 00:03:56;;;;;;;8.38;6.75;;;;;;;;;;5096820;28;20020;-70
2022/10/08 00:06:24;;;;;;;8.68;7.15;;;;;;;;;;5097643;28;20035;-70
2022/10/08 00:08:54;;;;;;;12.32;7.78;;;;;;;;;;5096529;28;20036;-70
2022/10/08 00:11:27;;;;;;;9.52;7.65;;;;;;;;;;5097258;28;20024;-69
2022/10/08 00:13:53;;;;;;;10.50;7.60;;;;;;;;;;5078764;28;20043;-69
2022/10/08 00:16:26;;;;;;;12.18;8.20;;;;;;;;;;5095748;28;20024;-70
2022/10/08 00:18:53;;;;;;;10.90;8.18;;;;;;;;;;5097939;28;20020;-70
2022/10/08 00:21:19;;;;;;;9.18;7.32;;;;;;;;;;5095919;28;20094;-70
2022/10/08 00:23:46;;;;;;;10.85;7.28;;;;;;;;;;5097043;28;20189;-70
2022/10/08 00:26:11;;;;;;;9.63;6.82;;;;;;;;;;5096851;28;20016;-69
2022/10/08 00:28:40;;;;;;;11.10;7.75;;;;;;;;;;5079089;28;20374;-68
2022/10/08 00:31:10;;;;;;;10.73;7.10;;;;;;;;;;5078733;28;20031;-69
2022/10/08 00:33:35;;;;;;;8.25;7.13;;;;;;;;;;5097063;28;20020;-69
2022/10/08 00:36:02;;;;;;;7.93;6.97;;;;;;;;;;5078783;28;20335;-69
2022/10/08 00:38:28;;;;;;;10.65;6.85;;;;;;;;;;5095812;28;20027;-69
2022/10/08 00:40:53;;;;;;;7.78;6.60;;;;;;;;;;5096480;28;20016;-68
2022/10/08 00:43:35;;;;;;;7.60;6.28;;;;;;;;;;5095980;28;20133;-68
2022/10/08 00:46:01;;;;;;;7.50;6.28;;;;;;;;;;5096464;28;20032;-69
2022/10/08 00:48:27;;;;;;;7.40;6.13;;;;;;;;;;5096076;28;20031;-69
2022/10/08 00:50:52;;;;;;;7.60;6.85;;;;;;;;;;5096405;28;20051;-70
2022/10/08 00:53:17;;;;;;;7.28;6.50;;;;;;;;;;5094862;28;20118;-69
2022/10/08 00:55:43;;;;;;;9.75;6.90;;;;;;;;;;5096171;28;20028;-69
2022/10/08 00:58:11;;;;;;;8.10;6.85;;;;;;;;;;5095746;28;20529;-70
2022/10/08 01:00:37;;;;;;;9.88;6.57;;;;;;;;;;5096045;28;20067;-70
2022/10/08 01:03:02;;;;;;;10.07;6.80;;;;;;;;;;5094592;28;20086;-70
2022/10/08 01:05:40;;;;;;;7.43;6.57;;;;;;;;;;5096140;28;20020;-69
2022/10/08 01:08:12;;;;;;;7.68;6.88;;;;;;;;;;5095562;28;20386;-70
2022/10/08 01:10:49;;;;;;;7.78;6.90;;;;;;;;;;5095830;28;20051;-70
2022/10/08 01:13:24;;;;;;;9.20;6.90;;;;;;;;;;5094984;28;20706;-70
2022/10/08 01:15:52;;;;;;;7.47;6.72;;;;;;;;;;5095643;28;20039;-70
2022/10/08 01:18:32;;;;;;;7.35;6.60;;;;;;;;;;5095776;28;20035;-69
2022/10/08 01:21:10;;;;;;;7.35;6.10;;;;;;;;;;5095229;28;20024;-70
2022/10/08 01:23:42;;;;;;;8.55;6.47;;;;;;;;;;5095777;28;20032;-70
2022/10/08 01:26:22;;;;;;;12.65;6.78;;;;;;;;;;5095959;28;20076;-70
2022/10/08 01:28:50;;;;;;;7.67;6.83;;;;;;;;;;5095578;28;20032;-68
2022/10/08 01:31:21;;;;;;;7.97;6.68;;;;;;;;;;5094078;28;20018;-69
2022/10/08 01:33:53;;;;;;;8.20;6.35;;;;;;;;;;5093943;28;20481;-68
2022/10/08 01:36:20;;;;;;;7.55;6.30;;;;;;;;;;5095698;28;20077;-68
2022/10/08 01:38:49;;;;;;;9.35;6.57;;;;;;;;;;5077126;28;20023;-69
2022/10/08 01:41:16;;;;;;;7.40;6.05;;;;;;;;;;5095073;28;20028;-70
2022/10/08 01:43:44;;;;;;;11.77;6.32;;;;;;;;;;5095100;28;20477;-70
2022/10/08 01:46:15;;;;;;;8.57;6.47;;;;;;;;;;5094258;28;20020;-69
2022/10/08 01:48:41;;;;;;;8.07;6.53;;;;;;;;;;5094481;28;20067;-70
2022/10/08 01:51:06;;;;;;;8.32;5.85;;;;;;;;;;5095265;28;20040;-69
2022/10/08 01:53:35;;;;;;;6.80;6.10;;;;;;;;;;5095263;28;20097;-69
2022/10/08 01:56:01;;;;;;;8.30;6.20;;;;;;;;;;5095186;28;20032;-69
2022/10/08 01:58:31;;;;;;;6.28;5.78;;;;;;;;;;5095539;28;20435;-69
2022/10/08 02:01:01;;;;;;;5.97;5.38;;;;;;;;;;5095583;28;20085;-69
2022/10/08 02:03:26;;;;;;;7.15;5.63;;;;;;;;;;5095629;28;20036;-70
2022/10/08 02:05:53;;;;;;;6.25;5.72;;;;;;;;;;5095046;28;20023;-69
2022/10/08 02:08:19;;;;;;;8.07;6.03;;;;;;;;;;5093843;28;20184;-70
2022/10/08 02:10:45;;;;;;;6.80;6.15;;;;;;;;;;5093606;28;20056;-70
2022/10/08 02:13:10;;;;;;;7.65;6.10;;;;;;;;;;5094833;28;20520;-71
2022/10/08 02:15:47;;;;;;;5.97;5.45;;;;;;;;;;5095150;28;20478;-70
2022/10/08 02:18:17;;;;;;;9.02;5.80;;;;;;;;;;5076928;28;20107;-69
2022/10/08 02:20:54;;;;;;;5.95;5.35;;;;;;;;;;5094419;28;20030;-70
2022/10/08 02:23:24;;;;;;;6.55;5.55;;;;;;;;;;5095137;28;20047;-69
2022/10/08 02:25:57;;;;;;;6.57;5.93;;;;;;;;;;5094675;28;20044;-70
2022/10/08 02:28:26;;;;;;;6.22;5.63;;;;;;;;;;5093996;28;20028;-69
2022/10/08 02:30:58;;;;;;;5.68;5.18;;;;;;;;;;5095053;28;20027;-69
2022/10/08 02:33:44;;;;;;;6.75;5.65;;;;;;;;;;5094479;28;20036;-69
2022/10/08 02:36:12;;;;;;;7.68;5.75;;;;;;;;;;5094139;28;20027;-69
2022/10/08 02:38:49;;;;;;;9.32;5.63;;;;;;;;;;5093407;28;20024;-69
2022/10/08 02:41:15;;;;;;;5.55;5.05;;;;;;;;;;5075210;28;20117;-70
2022/10/08 02:43:45;;;;;;;6.13;5.60;;;;;;;;;;5094297;28;20012;-70
2022/10/08 02:46:15;;;;;;;9.77;5.80;;;;;;;;;;5093135;28;20428;-70
2022/10/08 02:48:46;;;;;;;6.95;5.97;;;;;;;;;;5094708;28;20465;-70
2022/10/08 02:51:11;;;;;;;;;;;;;;;;;;5094771;28;20044;-70
2022/10/08 02:53:38;;;;;;;7.57;6.32;;;;;;;;;;5094763;28;19908;-69
2022/10/08 02:56:13;;;;;;;8.10;6.40;;;;;;;;;;5093511;28;20135;-70
2022/10/08 02:58:40;;;;;;;8.35;5.82;;;;;;;;;;5094215;28;20040;-70
2022/10/08 03:01:15;;;;;;;7.07;6.47;;;;;;;;;;5094178;28;20012;-70
2022/10/08 03:03:43;;;;;;;8.55;6.05;;;;;;;;;;5093908;28;20057;-70
2022/10/08 03:06:10;;;;;;;8.90;5.93;;;;;;;;;;5093994;28;20040;-70
2022/10/08 03:08:38;;;;;;;10.90;6.30;;;;;;;;;;5093928;28;20028;-70
2022/10/08 03:11:05;;;;;;;7.10;6.40;;;;;;;;;;5058974;28;20120;-70
2022/10/08 03:13:33;;;;;;;7.25;6.50;;;;;;;;;;5093703;28;20040;-70
2022/10/08 03:15:58;;;;;;;7.05;6.03;;;;;;;;;;5093887;28;20027;-70
2022/10/08 03:18:24;;;;;;;6.13;5.53;;;;;;;;;;5093831;28;20028;-70
2022/10/08 03:20:50;;;;;;;8.13;5.75;;;;;;;;;;5093685;28;20462;-70
2022/10/08 03:23:17;;;;;;;8.15;5.95;;;;;;;;;;5076335;28;20080;-70
2022/10/08 03:25:42;;;;;;;7.57;5.40;;;;;;;;;;5093509;28;20024;-69
2022/10/08 03:28:08;;;;;;;7.38;5.90;;;;;;;;;;5093503;28;20031;-70
2022/10/08 03:30:33;;;;;;;6.90;6.00;;;;;;;;;;5094007;28;20388;-70
2022/10/08 03:32:59;;;;;;;6.25;5.65;;;;;;;;;;5094071;28;20032;-69
2022/10/08 03:35:24;;;;;;;7.00;6.18;;;;;;;;;;5076295;28;20024;-70
2022/10/08 03:37:50;;;;;;;11.43;6.97;;;;;;;;;;5093226;28;20562;-70
2022/10/08 03:40:16;;;;;;;8.98;6.50;;;;;;;;;;5093664;28;20012;-71
2022/10/08 03:42:41;;;;;;;8.52;6.85;;;;;;;;;;5093050;28;20051;-69
2022/10/08 03:45:06;;;;;;;11.07;7.40;;;;;;;;;;5092033;28;20016;-69
2022/10/08 03:47:32;;;;;;;10.20;7.18;;;;;;;;;;5093156;28;20051;-70
2022/10/08 03:49:57;;;;;;;11.57;7.13;;;;;;;;;;5093698;28;20020;-70
2022/10/08 03:52:23;;;;;;;14.43;6.85;;;;;;;;;;5093178;28;20119;-71
2022/10/08 03:54:48;;;;;;;6.88;6.13;;;;;;;;;;5094043;28;20446;-70
2022/10/08 03:57:13;;;;;;;9.07;5.45;;;;;;;;;;5093565;28;20036;-71
2022/10/08 03:59:39;;;;;;;6.07;5.20;;;;;;;;;;5093988;28;20366;-71
2022/10/08 04:02:04;;;;;;;8.98;5.28;;;;;;;;;;5093139;28;20032;-71
2022/10/08 04:04:30;;;;;;;5.07;4.68;;;;;;;;;;5075698;28;20019;-71
2022/10/08 04:06:55;;;;;;;6.10;5.18;;;;;;;;;;5093673;28;20106;-72
2022/10/08 04:09:20;;;;;;;6.05;5.10;;;;;;;;;;5093920;28;20023;-69
2022/10/08 04:11:46;;;;;;;9.85;5.10;;;;;;;;;;5093137;28;20029;-69
2022/10/08 04:14:11;;;;;;;6.95;5.68;;;;;;;;;;5093824;28;20020;-69
2022/10/08 04:16:36;;;;;;;6.40;5.50;;;;;;;;;;5093911;28;20039;-70
2022/10/08 04:19:02;;;;;;;5.47;5.07;;;;;;;;;;5093788;28;20453;-71
2022/10/08 04:21:28;;;;;;;5.75;5.22;;;;;;;;;;5093585;28;20047;-71
2022/10/08 04:23:54;;;;;;;6.20;5.35;;;;;;;;;;5093525;28;20035;-71
2022/10/08 04:26:19;;;;;;;8.25;5.60;;;;;;;;;;5093724;28;20080;-71
2022/10/08 04:28:46;;;;;;;6.18;5.43;;;;;;;;;;5094516;28;20020;-73
2022/10/08 04:31:20;;;;;;;8.90;6.20;;;;;;;;;;5097307;28;20035;-73
2022/10/08 04:33:46;;;;;;;6.35;5.57;;;;;;;;;;5097364;28;20390;-73
2022/10/08 04:36:15;;;;;;;5.88;5.32;;;;;;;;;;5097260;28;20024;-73
2022/10/08 04:38:41;;;;;;;9.50;5.87;;;;;;;;;;5078867;28;20055;-72
2022/10/08 04:41:08;;;;;;;7.78;5.78;;;;;;;;;;5096829;28;20258;-73
2022/10/08 04:43:35;;;;;;;6.25;5.65;;;;;;;;;;5095885;28;20028;-73
2022/10/08 04:46:00;;;;;;;6.82;5.30;;;;;;;;;;5078211;28;20551;-72
2022/10/08 04:48:26;;;;;;;6.90;6.18;;;;;;;;;;5096228;28;20030;-72
2022/10/08 04:50:58;;;;;;;7.40;6.65;;;;;;;;;;5095743;28;20113;-72
2022/10/08 04:53:24;;;;;;;11.35;7.20;;;;;;;;;;5096091;28;20052;-72
2022/10/08 04:55:50;;;;;;;11.25;7.15;;;;;;;;;;5096183;28;20039;-72
2022/10/08 04:58:15;;;;;;;15.68;8.00;;;;;;;;;;5095894;28;20032;-72
2022/10/08 05:00:41;;;;;;;15.70;8.25;;;;;;;;;;5095711;28;20531;-71
2022/10/08 05:03:06;;;;;;;14.48;10.15;;;;;;;;;;5095733;28;20027;-72
2022/10/08 05:05:31;;;;;;;14.65;11.07;;;;;;;;;;5094654;28;20115;-72
2022/10/08 05:07:57;;;;;;;18.40;10.20;;;;;;;;;;5095755;28;20043;-72
2022/10/08 05:10:25;;;;;;;18.08;11.73;;;;;;;;;;5095787;28;20101;-73
2022/10/08 05:12:51;;;;;;;18.30;11.63;;;;;;;;;;5095711;28;20035;-72
2022/10/08 05:15:16;;;;;;;16.95;11.23;;;;;;;;;;5095827;28;20362;-71
2022/10/08 05:17:41;;;;;;;15.43;10.85;;;;;;;;;;5077335;28;20028;-72
2022/10/08 05:20:07;;;;;;;17.17;10.63;;;;;;;;;;5095696;28;20095;-72
2022/10/08 05:22:32;;;;;;;12.43;9.63;;;;;;;;;;5095311;28;20028;-72
2022/10/08 05:24:57;;;;;;;10.07;8.95;;;;;;;;;;5096353;28;20417;-71
2022/10/08 05:27:23;;;;;;;12.93;9.57;;;;;;;;;;5096182;28;20036;-72
2022/10/08 05:29:48;;;;;;;12.57;9.60;;;;;;;;;;5096084;28;20038;-72
2022/10/08 05:32:14;;;;;;;13.65;8.52;;;;;;;;;;5094793;28;20032;-72
2022/10/08 05:34:39;;;;;;;17.60;10.30;;;;;;;;;;5078026;28;20331;-72
2022/10/08 05:37:04;;;;;;;14.00;9.00;;;;;;;;;;5094690;28;20115;-72
2022/10/08 05:39:30;;;;;;;13.88;8.63;;;;;;;;;;5095582;28;20043;-72
2022/10/08 05:41:55;;;;;;;10.70;8.50;;;;;;;;;;5095470;28;20107;-71
2022/10/08 05:44:21;;;;;;;12.60;8.68;;;;;;;;;;5095621;28;20422;-72
2022/10/08 05:46:46;;;;;;;13.25;9.82;;;;;;;;;;5095618;28;20020;-71
2022/10/08 05:49:19;;;;;;;15.45;10.60;;;;;;;;;;5095567;28;20444;-71
2022/10/08 05:51:45;;;;;;;12.43;9.30;;;;;;;;;;5095220;28;20040;-72
2022/10/08 05:54:10;;;;;;;11.38;8.23;;;;;;;;;;5095165;28;20027;-72
2022/10/08 05:56:36;;;;;;;12.27;8.65;;;;;;;;;;5095690;28;20366;-71
2022/10/08 05:59:01;;;;;;;14.30;8.93;;;;;;;;;;5094708;28;20032;-71
2022/10/08 06:01:28;;;;;;;8.50;6.93;;;;;;;;;;5095114;28;20024;-71
2022/10/08 06:03:55;;;;;;;9.63;8.05;;;;;;;;;;5077369;28;20039;-71
2022/10/08 06:06:21;;;;;;;9.73;8.65;;;;;;;;;;5093539;28;20019;-71
2022/10/08 06:08:51;;;;;;;10.20;8.40;;;;;;;;;;5075042;28;20367;-71
2022/10/08 06:11:17;;;;;;;9.50;8.40;;;;;;;;;;5094215;28;20028;-71
2022/10/08 06:13:42;;;;;;;10.23;7.60;;;;;;;;;;5074996;28;20416;-71
2022/10/08 06:16:08;;;;;;;9.05;7.72;;;;;;;;;;5075029;28;20028;-71
2022/10/08 06:18:35;;;;;;;12.93;8.23;;;;;;;;;;5091107;28;20549;-71
2022/10/08 06:21:04;;;;;;;12.48;10.05;;;;;;;;;;5091601;28;20426;-71
2022/10/08 06:23:30;;;;;;;12.88;10.07;;;;;;;;;;5073045;28;20136;-71
2022/10/08 06:25:59;;;;;;;12.55;9.70;;;;;;;;;;5091463;28;20115;-71
2022/10/08 06:28:25;;;;;;;11.80;8.63;;;;;;;;;;5091757;28;20016;-71
2022/10/08 06:30:50;;;;;;;9.18;7.82;;;;;;;;;;5091814;28;20537;-70
2022/10/08 06:33:15;;;;;;;10.32;7.68;;;;;;;;;;5091556;28;20030;-71
2022/10/08 06:35:41;;;;;;;11.20;7.32;;;;;;;;;;5091792;28;20016;-71
2022/10/08 06:38:06;;;;;;;6.95;6.15;;;;;;;;;;5093479;28;20362;-71
2022/10/08 06:40:37;;;;;;;8.52;7.10;;;;;;;;;;5075337;28;20039;-71
2022/10/08 06:43:06;;;;;;;9.52;8.13;;;;;;;;;;5092738;28;20020;-71
2022/10/08 06:45:32;;;;;;;9.68;8.27;;;;;;;;;;5093183;28;20038;-71
2022/10/08 06:47:57;;;;;;;10.82;8.80;;;;;;;;;;5093081;28;20470;-71
2022/10/08 06:50:22;;;;;;;13.35;9.25;;;;;;;;;;5093094;28;20028;-70
2022/10/08 06:52:48;;;;;;;8.77;7.88;;;;;;;;;;5073153;28;20125;-72
2022/10/08 06:55:13;;;;;;;12.20;8.50;;;;;;;;;;5072661;28;20029;-66
2022/10/08 06:57:39;;;;;;;11.15;9.00;;;;;;;;;;5072735;28;20039;-68
2022/10/08 07:00:05;;;;;;;13.73;9.70;;;;;;;;;;5072823;28;20103;-69
2022/10/08 07:02:30;;;;;;;16.15;9.43;;;;;;;;;;5072387;28;20029;-69
2022/10/08 07:04:55;;;;;;;20.98;10.98;;;;;;;;;;5072652;28;20020;-69
2022/10/08 07:07:21;;;;;;;15.30;9.85;;;;;;;;;;5072754;28;20029;-69
2022/10/08 07:09:46;;;;;;;17.45;9.25;;;;;;;;;;5088177;28;20055;-70
2022/10/08 07:12:12;;;;;;;23.67;11.30;;;;;;;;;;5073307;28;20086;-69
2022/10/08 07:14:37;;;;;;;24.92;12.25;;;;;;;;;;5073423;28;20017;-69
2022/10/08 07:17:03;;;;;;;24.55;11.45;;;;;;;;;;5073137;28;20032;-69
2022/10/08 07:19:28;;;;;;;21.00;11.07;;;;;;;;;;5073283;28;20519;-69
2022/10/08 07:21:54;;;;;;;25.67;11.80;;;;;;;;;;5073201;28;20024;-69
2022/10/08 07:24:21;;;;;;;19.85;11.40;;;;;;;;;;5072896;28;20462;-69
2022/10/08 07:26:46;;;;;;;20.95;11.60;;;;;;;;;;5072995;28;20021;-69
2022/10/08 07:29:12;;;;;;;20.95;11.60;;;;;;;;;;5088844;28;20538;-69
2022/10/08 07:31:39;;;;;;;16.40;11.38;;;;;;;;;;5072451;28;20027;-68
2022/10/08 07:34:09;;;;;;;19.67;11.05;;;;;;;;;;5071204;28;20023;-68
2022/10/08 07:36:35;;;;;;;15.60;10.63;;;;;;;;;;5072401;28;20028;-68
2022/10/08 07:39:13;;;;;;;18.20;11.27;;;;;;;;;;5072643;28;20053;-69
2022/10/08 07:41:39;;;;;;;16.65;9.48;;;;;;;;;;5072389;28;20078;-69
2022/10/08 07:44:05;;;;;;;14.75;9.45;;;;;;;;;;5071886;28;20017;-69
2022/10/08 07:46:35;;;;;;;11.10;7.85;;;;;;;;;;5072340;28;20025;-69
2022/10/08 07:49:00;;;;;;;13.18;7.82;;;;;;;;;;5070900;28;20053;-69
2022/10/08 07:51:26;;;;;;;13.60;7.47;;;;;;;;;;5077041;28;20461;-69
2022/10/08 07:53:52;;;;;;;14.15;7.72;;;;;;;;;;5092387;28;20119;-65
2022/10/08 07:56:18;;;;;;;16.77;8.98;;;;;;;;;;5092653;28;20103;-64
2022/10/08 07:58:50;;;;;;;11.98;7.47;;;;;;;;;;5092916;28;20039;-65
2022/10/08 08:01:17;;;;;;;10.10;7.30;;;;;;;;;;5074323;28;20039;-65
2022/10/08 08:03:42;;;;;;;10.43;6.47;;;;;;;;;;5094494;28;20042;-64
2022/10/08 08:06:09;;;;;;;7.97;6.85;;;;;;;;;;5096356;28;20530;-64
2022/10/08 08:08:35;;;;;;;9.40;6.53;;;;;;;;;;5078143;28;20068;-65
2022/10/08 08:11:02;;;;;;;9.15;6.55;;;;;;;;;;5096417;28;20542;-65
2022/10/08 08:13:30;;;;;;;7.55;6.13;;;;;;;;;;5096388;28;20463;-63
2022/10/08 08:16:03;;;;;;;8.85;6.35;;;;;;;;;;5095967;28;20047;-64
2022/10/08 08:18:31;;;;;;;5.72;5.20;;;;;;;;;;5096190;28;20115;-65
2022/10/08 08:20:57;;;;;;;8.15;5.68;;;;;;;;;;5078299;28;20400;-65
2022/10/08 08:23:26;;;;;;;8.77;4.93;;;;;;;;;;5078212;28;20063;-64
2022/10/08 08:25:51;;;;;;;8.45;5.07;;;;;;;;;;5095958;28;20351;-65
2022/10/08 08:28:17;;;;;;;6.88;4.50;;;;;;;;;;5096648;28;20030;-64
2022/10/08 08:30:42;;;;;;;4.45;4.15;;;;;;;;;;5096589;28;20027;-65
2022/10/08 08:33:08;;;;;;;5.53;3.95;;;;;;;;;;5096502;28;20047;-65
2022/10/08 08:35:33;;;;;;;4.40;3.90;;;;;;;;;;5096543;28;20027;-65
2022/10/08 08:37:58;;;;;;;6.38;4.22;;;;;;;;;;5078183;28;20036;-65
2022/10/08 08:40:26;;;;;;;5.45;3.83;;;;;;;;;;5096112;28;20020;-64
2022/10/08 08:42:53;;;;;;;5.28;3.85;;;;;;;;;;5095808;28;20040;-64
2022/10/08 08:45:26;;;;;;;6.63;4.20;;;;;;;;;;5095486;28;20420;-65
2022/10/08 08:47:56;;;;;;;5.05;3.65;;;;;;;;;;5095431;28;20458;-65
2022/10/08 08:50:33;;;;;;;6.53;3.65;;;;;;;;;;5077404;28;20032;-64
2022/10/08 08:53:00;;;;;;;3.95;3.63;;;;;;;;;;5077063;28;20048;-65
2022/10/08 08:55:33;;;;;;;7.10;3.80;;;;;;;;;;5077222;28;20382;-65
2022/10/08 08:58:18;;;;;;;5.32;3.60;;;;;;;;;;5095189;28;20036;-65
2022/10/08 09:00:55;;;;;;;4.63;4.07;;;;;;;;;;5095131;28;20046;-63
2022/10/08 09:03:27;;;;;;;3.58;3.38;;;;;;;;;;5094817;28;20020;-65
2022/10/08 09:05:55;;;;;;;5.28;3.75;;;;;;;;;;5076892;28;20089;-65
2022/10/08 09:08:29;;;;;;;4.90;3.95;;;;;;;;;;5095027;28;20020;-65
2022/10/08 09:10:55;;;;;;;4.22;3.17;;;;;;;;;;5076999;28;20027;-64
2022/10/08 09:13:23;;;;;;;4.18;3.30;;;;;;;;;;5076716;28;20370;-64
2022/10/08 09:15:49;;;;;;;3.53;3.22;;;;;;;;;;5092525;28;20036;-65
2022/10/08 09:18:15;;;;;;;2.58;2.25;;;;;;;;;;5094120;28;20024;-65
2022/10/08 09:20:41;;;;;;;3.25;2.95;;;;;;;;;;5076836;28;20097;-64
2022/10/08 09:23:17;;;;;;;3.22;2.92;;;;;;;;;;5075783;28;20008;-64
2022/10/08 09:25:46;;;;;;;2.92;2.72;;;;;;;;;;5093060;28;20032;-66
2022/10/08 09:28:32;;;;;;;2.42;2.20;;;;;;;;;;5093507;28;20478;-64
2022/10/08 09:31:09;;;;;;;3.00;2.80;;;;;;;;;;5093410;28;20024;-65
2022/10/08 09:33:37;;;;;;;3.90;3.15;;;;;;;;;;5095094;28;20034;-65
2022/10/08 09:36:03;;;;;;;3.20;2.90;;;;;;;;;;5094882;28;20023;-64
2022/10/08 09:38:35;;;;;;;3.47;3.25;;;;;;;;;;5094668;28;20035;-65
2022/10/08 09:41:10;;;;;;;4.63;3.08;;;;;;;;;;5094003;28;20046;-64
2022/10/08 09:43:36;;;;;;;5.38;3.45;;;;;;;;;;5094028;28;20028;-65
2022/10/08 09:46:10;;;;;;;4.45;2.95;;;;;;;;;;5094193;28;20107;-65
2022/10/08 09:48:36;;;;;;;3.60;3.30;;;;;;;;;;5076043;28;20386;-63
2022/10/08 09:51:09;;;;;;;3.67;3.35;;;;;;;;;;5094079;28;20020;-65
2022/10/08 09:53:38;;;;;;;4.13;3.17;;;;;;;;;;5074671;28;20039;-66
2022/10/08 09:56:05;;;;;;;3.65;3.35;;;;;;;;;;5074148;28;20097;-66
2022/10/08 09:58:32;;;;;;;4.90;3.47;;;;;;;;;;5092037;28;20032;-65
2022/10/08 10:01:05;;;;;;;4.00;3.47;;;;;;;;;;5074177;28;20024;-64
2022/10/08 10:03:33;;;;;;;3.60;3.30;;;;;;;;;;5091872;28;20524;-64
2022/10/08 10:05:58;;;;;;;4.55;3.22;;;;;;;;;;5073970;28;20374;-66
2022/10/08 10:08:45;;;;;;;3.20;2.90;;;;;;;;;;5074763;28;20036;-65
2022/10/08 10:11:12;;;;;;;4.35;2.75;;;;;;;;;;5094404;28;20037;-65
2022/10/08 10:13:39;;;;;;;3.17;2.97;;;;;;;;;;5094842;28;20564;-65
2022/10/08 10:16:14;;;;;;;2.80;2.50;;;;;;;;;;5094770;28;20067;-66
2022/10/08 10:18:59;;;;;;;3.65;2.47;;;;;;;;;;5094666;28;20036;-65
2022/10/08 10:21:40;;;;;;;3.83;3.53;;;;;;;;;;5094674;28;20020;-65
2022/10/08 10:24:26;;;;;;;2.55;2.35;;;;;;;;;;5094394;28;20024;-64
2022/10/08 10:26:53;;;;;;;3.63;3.33;;;;;;;;;;5074897;28;20051;-65
2022/10/08 10:29:21;;;;;;;2.25;2.15;;;;;;;;;;5094562;28;20016;-65
2022/10/08 10:31:46;;;;;;;3.40;3.10;;;;;;;;;;5076576;28;20032;-64
2022/10/08 10:34:16;;;;;;;1.98;1.65;;;;;;;;;;5076348;28;20095;-65
2022/10/08 10:36:50;;;;;;;3.70;3.33;;;;;;;;;;5094673;28;20020;-65
2022/10/08 10:39:24;;;;;;;6.30;3.55;;;;;;;;;;5094625;28;20458;-69
2022/10/08 10:42:02;;;;;;;4.65;4.03;;;;;;;;;;5076413;28;20055;-65
2022/10/08 10:44:33;;;;;;;5.18;3.90;;;;;;;;;;5093859;28;20107;-65
2022/10/08 10:47:02;;;;;;;7.35;4.22;;;;;;;;;;5094394;28;20036;-70
2022/10/08 10:49:36;;;;;;;4.47;3.95;;;;;;;;;;5092936;28;20401;-70
2022/10/08 10:52:30;;;;;;;5.50;3.78;;;;;;;;;;5083714;28;20036;-70
2022/10/08 10:55:04;;;;;;;5.65;4.30;;;;;;;;;;5073993;28;20079;-70
2022/10/08 10:57:29;;;;;;;6.57;4.45;;;;;;;;;;5074097;28;20176;-69
2022/10/08 11:00:00;;;;;;;6.30;4.70;;;;;;;;;;5072587;28;20478;-69
2022/10/08 11:02:30;;;;;;;5.25;4.05;;;;;;;;;;5073757;28;20111;-70
2022/10/08 11:04:59;;;;;;;6.10;4.60;;;;;;;;;;5073418;28;20016;-70
2022/10/08 11:07:44;;;;;;;4.78;4.38;;;;;;;;;;5073630;28;20032;-65
2022/10/08 11:10:18;;;;;;;6.15;4.93;;;;;;;;;;5073968;28;20079;-65
2022/10/08 11:12:58;;;;;;;6.35;4.63;;;;;;;;;;5073628;28;20036;-66
2022/10/08 11:15:45;;;;;;;6.85;4.93;;;;;;;;;;5073616;28;20086;-64
2022/10/08 11:18:22;;;;;;;4.38;3.97;;;;;;;;;;5072157;28;20494;-65
2022/10/08 11:20:54;;;;;;;5.75;4.88;;;;;;;;;;5073859;28;20017;-64
2022/10/08 11:23:41;;;;;;;2.75;2.55;;;;;;;;;;5073651;28;20056;-65
2022/10/08 11:26:13;;;;;;;9.05;4.60;;;;;;;;;;5073484;28;20082;-64
2022/10/08 11:28:38;;;;;;;4.20;3.78;;;;;;;;;;5073450;28;20453;-65
2022/10/08 11:31:09;;;;;;;5.80;5.20;;;;;;;;;;5072164;28;20119;-70
2022/10/08 11:33:35;;;;;;;5.28;4.78;;;;;;;;;;5072182;28;20278;-69
2022/10/08 11:36:00;;;;;;;4.65;4.25;;;;;;;;;;5073458;28;20112;-69
2022/10/08 11:38:30;;;;;;;6.50;4.28;;;;;;;;;;5074250;28;20033;-69
2022/10/08 11:41:08;;;;;;;3.17;2.87;;;;;;;;;;5076505;28;20029;-69
2022/10/08 11:44:12;;;;;;;6.30;5.18;;;;;;;;;;5077539;28;20263;-69
2022/10/08 11:46:38;;;;;;;5.68;5.07;;;;;;;;;;4995841;28;20049;-70
2022/10/08 11:49:12;;;;;;;5.57;5.13;;;;;;;;;;4995893;28;20030;-69
2022/10/08 11:51:39;;;;;;;4.97;4.47;;;;;;;;;;5044345;28;20036;-69
2022/10/08 11:54:13;;;;;;;5.50;5.10;;;;;;;;;;5097567;28;20510;-69
2022/10/08 11:56:41;;;;;;;4.25;3.08;;;;;;;;;;5062704;28;20081;-69
2022/10/08 11:59:25;;;;;;;5.75;5.10;;;;;;;;;;5079347;28;20028;-69
2022/10/08 12:01:52;;;;;;;8.45;6.57;;;;;;;;;;5097627;28;20073;-70
2022/10/08 12:04:19;;;;;;;5.78;4.95;;;;;;;;;;5079278;28;20107;-69
2022/10/08 12:06:46;;;;;;;9.27;4.85;;;;;;;;;;5097139;28;20099;-69
2022/10/08 12:09:22;;;;;;;6.47;5.82;;;;;;;;;;5097212;28;20016;-69
2022/10/08 12:11:49;;;;;;;7.35;5.53;;;;;;;;;;5097307;28;20024;-69
2022/10/08 12:14:14;;;;;;;6.60;5.95;;;;;;;;;;5097164;28;20020;-69
2022/10/08 12:16:57;;;;;;;6.65;5.88;;;;;;;;;;5097138;28;20032;-69
2022/10/08 12:21:58;;;;;;;5.63;5.13;;;;;;;;;;5097111;28;20032;-64
2022/10/08 12:24:37;;;;;;;7.07;5.75;;;;;;;;;;5096764;28;20394;-65
2022/10/08 12:27:21;;;;;;;6.95;6.15;;;;;;;;;;5078923;28;20093;-65
2022/10/08 12:30:05;;;;;;;6.05;5.45;;;;;;;;;;5079103;28;20028;-65
2022/10/08 12:32:40;;;;;;;5.57;5.03;;;;;;;;;;5078965;28;20027;-65
2022/10/08 12:35:17;;;;;;;6.63;5.38;;;;;;;;;;5079337;28;20086;-64
2022/10/08 12:37:56;;;;;;;8.38;6.60;;;;;;;;;;5097028;28;20114;-64
2022/10/08 12:40:39;;;;;;;7.78;5.65;;;;;;;;;;5097265;28;20032;-64
2022/10/08 12:43:08;;;;;;;10.30;5.88;;;;;;;;;;5079081;28;20074;-63
2022/10/08 12:45:41;;;;;;;6.25;5.50;;;;;;;;;;5096414;28;20132;-64
2022/10/08 12:48:13;;;;;;;5.55;5.05;;;;;;;;;;5096947;28;20031;-65
2022/10/08 12:50:47;;;;;;;5.25;4.35;;;;;;;;;;5077892;28;20359;-64
2022/10/08 12:53:15;;;;;;;5.53;4.95;;;;;;;;;;5096655;28;20076;-65
2022/10/08 12:55:44;;;;;;;5.18;4.78;;;;;;;;;;5096781;28;20106;-63
2022/10/08 12:58:14;;;;;;;3.75;3.47;;;;;;;;;;5096999;28;20131;-65
2022/10/08 13:00:41;;;;;;;6.20;5.60;;;;;;;;;;5096796;28;20089;-65
2022/10/08 13:03:16;;;;;;;7.18;4.63;;;;;;;;;;5096680;28;20061;-65
2022/10/08 13:05:42;;;;;;;2.00;1.73;;;;;;;;;;5096031;28;20081;-65
2022/10/08 13:08:26;;;;;;;6.40;4.78;;;;;;;;;;5096473;28;20382;-65
2022/10/08 13:10:51;;;;;;;4.65;4.28;;;;;;;;;;5078112;28;20048;-63
2022/10/08 13:13:29;;;;;;;5.07;4.65;;;;;;;;;;5096245;28;20485;-64
2022/10/08 13:15:58;;;;;;;7.05;4.90;;;;;;;;;;5096685;28;20446;-64
2022/10/08 13:18:23;;;;;;;7.47;3.72;;;;;;;;;;5096166;28;20377;-63
2022/10/08 13:20:59;;;;;;;7.70;4.70;;;;;;;;;;5096288;28;20024;-64
2022/10/08 13:23:30;;;;;;;11.07;4.20;;;;;;;;;;5096521;28;20035;-64
2022/10/08 13:25:58;;;;;;;6.97;4.18;;;;;;;;;;5077699;28;20036;-64
2022/10/08 13:28:23;;;;;;;7.47;4.72;;;;;;;;;;5096178;28;20016;-65
2022/10/08 13:30:51;;;;;;;5.90;4.97;;;;;;;;;;5078234;28;20340;-65
2022/10/08 13:33:18;;;;;;;7.10;6.03;;;;;;;;;;5077828;28;20020;-66
2022/10/08 13:35:50;;;;;;;8.52;5.40;;;;;;;;;;5096140;28;20542;-65
2022/10/08 13:38:19;;;;;;;8.48;5.30;;;;;;;;;;5077592;28;20366;-65
2022/10/08 13:40:51;;;;;;;7.90;5.57;;;;;;;;;;5096172;28;20020;-65
2022/10/08 13:43:17;;;;;;;5.30;4.80;;;;;;;;;;5095753;28;20035;-64
2022/10/08 13:45:43;;;;;;;11.20;5.32;;;;;;;;;;5077282;28;20016;-64
2022/10/08 13:48:14;;;;;;;5.50;4.95;;;;;;;;;;5095930;28;20044;-70
2022/10/08 13:50:41;;;;;;;4.72;4.32;;;;;;;;;;5095746;28;20034;-71
2022/10/08 13:53:08;;;;;;;6.53;5.07;;;;;;;;;;5095104;28;20082;-70
2022/10/08 13:55:35;;;;;;;7.20;5.72;;;;;;;;;;5076996;28;20042;-70
2022/10/08 13:58:02;;;;;;;5.93;5.43;;;;;;;;;;5095141;28;20086;-70
2022/10/08 14:00:29;;;;;;;8.30;5.43;;;;;;;;;;5094836;28;20359;-70
2022/10/08 14:02:54;;;;;;;10.02;5.43;;;;;;;;;;5095071;28;20422;-65
2022/10/08 14:05:34;;;;;;;5.93;4.97;;;;;;;;;;5076670;28;20108;-64
2022/10/08 14:08:01;;;;;;;5.97;5.47;;;;;;;;;;5095073;28;20067;-66
2022/10/08 14:10:27;;;;;;;6.57;5.78;;;;;;;;;;5094896;28;20456;-65
2022/10/08 14:12:53;;;;;;;9.60;5.75;;;;;;;;;;5095044;28;20063;-65
2022/10/08 14:15:18;;;;;;;6.07;5.47;;;;;;;;;;5093576;28;20455;-65
2022/10/08 14:17:43;;;;;;;6.78;5.70;;;;;;;;;;5094905;28;20036;-65
2022/10/08 14:20:09;;;;;;;6.35;5.07;;;;;;;;;;5094713;28;20027;-64
2022/10/08 14:22:38;;;;;;;6.50;5.18;;;;;;;;;;5094683;28;20017;-66
2022/10/08 14:25:05;;;;;;;8.68;5.85;;;;;;;;;;5076641;28;20024;-65
2022/10/08 14:27:31;;;;;;;8.18;4.95;;;;;;;;;;5076405;28;20080;-65
2022/10/08 14:29:56;;;;;;;9.20;5.50;;;;;;;;;;5076404;28;20114;-65
2022/10/08 14:32:21;;;;;;;6.28;5.50;;;;;;;;;;5094314;28;20039;-64
2022/10/08 14:34:47;;;;;;;8.55;5.80;;;;;;;;;;5094625;28;20035;-65
2022/10/08 14:37:12;;;;;;;5.32;4.55;;;;;;;;;;5094278;28;20035;-65
2022/10/08 14:39:38;;;;;;;8.80;6.55;;;;;;;;;;5076575;28;20026;-65
2022/10/08 14:42:03;;;;;;;8.82;5.60;;;;;;;;;;5093902;28;20519;-64
2022/10/08 14:44:29;;;;;;;5.93;5.40;;;;;;;;;;5093869;28;20023;-65
2022/10/08 14:46:54;;;;;;;6.28;5.68;;;;;;;;;;5093147;28;20020;-65
2022/10/08 14:49:20;;;;;;;9.20;6.60;;;;;;;;;;5093344;28;20529;-65
2022/10/08 14:51:46;;;;;;;8.55;5.85;;;;;;;;;;5072157;28;20047;-65